createdAt,value
2018-12-29T00:04:55.341Z,49.30
2018-12-29T04:28:08.503Z,44.60
2018-12-29T04:31:20.294Z,45.30
2018-12-29T04:37:33.040Z,45.70
2018-12-29T04:44:11.666Z,45.70
2018-12-29T04:46:56.651Z,45.50
2018-12-29T04:50:02.046Z,45.50
2018-12-29T04:53:00.065Z,45.70
2018-12-29T04:55:57.525Z,45.70
2018-12-29T04:59:02.416Z,45.70
2018-12-29T05:02:06.580Z,45.50
2018-12-29T05:05:09.058Z,45.50
2018-12-29T05:08:05.487Z,45.50
2018-12-29T05:11:04.692Z,45.50
2018-12-29T05:14:01.583Z,45.70
2018-12-29T05:16:57.782Z,45.80
2018-12-29T05:20:34.709Z,45.60
2018-12-29T05:23:35.826Z,45.30
2018-12-29T05:26:36.833Z,45.20
2018-12-29T05:29:33.937Z,45.20
2018-12-29T05:32:45.082Z,45.20
2018-12-29T05:35:38.846Z,45.10
2018-12-29T05:38:34.941Z,45.00
2018-12-29T05:41:34.006Z,44.70
2018-12-29T05:44:30.422Z,44.60
2018-12-29T05:47:27.670Z,44.50
2018-12-29T05:50:25.831Z,43.80
2018-12-29T05:53:27.613Z,43.30
2018-12-29T05:56:59.749Z,43.30
2018-12-29T05:59:54.550Z,42.90
2018-12-29T06:02:51.371Z,42.70
2018-12-29T06:05:47.834Z,42.50
2018-12-29T06:08:46.814Z,42.20
2018-12-29T06:11:44.562Z,42.00
2018-12-29T06:14:45.727Z,41.90
2018-12-29T06:20:41.134Z,42.00
2018-12-29T06:23:38.531Z,41.50
2018-12-29T06:26:35.927Z,41.10
2018-12-29T06:29:35.337Z,40.90
2018-12-29T06:32:38.769Z,40.50
2018-12-29T06:35:33.794Z,40.20
2018-12-29T06:39:04.197Z,40.20
2018-12-29T06:41:46.755Z,39.70
2018-12-29T06:44:40.962Z,39.20
2018-12-29T06:48:01.419Z,39.30
2018-12-29T06:50:57.937Z,39.20
2018-12-29T06:54:02.059Z,39.00
2018-12-29T06:58:34.057Z,38.90
2018-12-29T07:00:18.405Z,39.10
2018-12-29T07:03:26.314Z,39.20
2018-12-29T07:06:26.301Z,39.20
2018-12-29T07:09:26.183Z,39.40
2018-12-29T07:15:36.311Z,38.40
2018-12-29T07:18:35.055Z,38.70
2018-12-29T07:21:31.591Z,38.30
2018-12-29T07:24:31.667Z,38.30
2018-12-29T07:27:29.285Z,38.10
2018-12-29T07:30:51.020Z,37.60
2018-12-29T07:33:48.594Z,37.00
2018-12-29T07:37:00.505Z,36.70
2018-12-29T07:40:03.372Z,36.20
2018-12-29T07:43:06.921Z,35.90
2018-12-29T07:46:03.817Z,35.70
2018-12-29T07:49:00.464Z,34.90
2018-12-29T07:51:57.028Z,34.50
2018-12-29T07:54:53.742Z,34.40
2018-12-29T07:57:50.870Z,34.30
2018-12-29T08:00:53.760Z,33.90
2018-12-29T08:03:53.721Z,34.00
2018-12-29T08:06:53.301Z,34.20
2018-12-29T08:09:56.510Z,34.20
2018-12-29T08:13:09.426Z,34.40
2018-12-29T08:16:06.503Z,34.20
2018-12-29T08:19:08.005Z,34.20
2018-12-29T08:22:04.262Z,33.90
2018-12-29T08:25:00.209Z,33.80
2018-12-29T08:27:57.139Z,33.30
2018-12-29T08:30:56.077Z,33.10
2018-12-29T08:33:52.670Z,32.90
2018-12-29T08:36:52.584Z,33.10
2018-12-29T08:40:04.320Z,32.40
2018-12-29T08:42:50.218Z,32.70
2018-12-29T08:46:22.553Z,32.90
2018-12-29T08:49:16.552Z,33.20
2018-12-29T08:52:18.783Z,33.40
2018-12-29T08:55:30.122Z,33.30
2018-12-29T08:58:33.324Z,33.60
2018-12-29T09:01:45.946Z,32.90
2018-12-29T09:05:06.312Z,32.90
2018-12-29T09:08:11.255Z,32.90
2018-12-29T09:24:18.954Z,32.30
2018-12-29T09:45:21.768Z,32.10
2018-12-29T10:13:22.826Z,31.70
2018-12-29T10:19:47.616Z,31.80
2018-12-29T10:29:50.708Z,32.30
2018-12-29T10:39:52.054Z,32.50
2018-12-29T10:42:43.814Z,32.10
2018-12-29T11:09:25.006Z,33.50
2018-12-29T11:18:23.356Z,34.30
2018-12-29T11:21:24.193Z,34.50
2018-12-29T11:24:52.902Z,34.60
2018-12-29T11:27:50.537Z,34.50
2018-12-29T11:30:53.540Z,34.50
2018-12-29T11:33:56.554Z,34.40
2018-12-29T11:37:01.932Z,34.40
2018-12-29T11:40:04.198Z,35.00
2018-12-29T11:43:09.051Z,34.60
2018-12-29T11:46:06.306Z,34.80
2018-12-29T11:49:18.042Z,35.00
2018-12-29T11:55:18.369Z,35.30
2018-12-29T11:58:20.425Z,35.50
2018-12-29T12:01:22.091Z,35.70
2018-12-29T12:04:28.226Z,35.70
2018-12-29T12:07:39.147Z,35.80
2018-12-29T12:11:10.903Z,36.10
2018-12-29T12:17:35.005Z,36.60
2018-12-29T12:20:47.016Z,36.80
2018-12-29T12:23:51.081Z,37.00
2018-12-29T12:26:50.251Z,37.40
2018-12-29T12:29:47.131Z,37.50
2018-12-29T12:32:59.471Z,37.80
2018-12-29T12:39:12.631Z,38.00
2018-12-29T12:42:14.705Z,38.20
2018-12-29T12:45:17.369Z,38.30
2018-12-29T12:51:33.498Z,38.70
2018-12-29T12:55:01.508Z,38.70
2018-12-29T12:57:59.323Z,38.60
2018-12-29T13:20:18.277Z,39.00
2018-12-29T13:23:24.065Z,38.90
2018-12-29T13:26:32.536Z,39.00
2018-12-29T13:29:29.547Z,39.20
2018-12-29T13:32:34.693Z,39.20
2018-12-29T13:35:41.174Z,39.10
2018-12-29T13:38:46.154Z,39.80
2018-12-29T13:41:52.437Z,39.20
2018-12-29T13:44:54.418Z,39.40
2018-12-29T13:48:00.268Z,39.60
2018-12-29T13:51:05.955Z,39.90
2018-12-29T13:54:09.299Z,40.00
2018-12-29T13:57:14.290Z,40.30
2018-12-29T14:00:42.464Z,40.40
2018-12-29T14:04:01.929Z,40.50
